Time;durP1;ratioP1;P1;durP2;ratioP2;P2;SDS_P1;SDS_P2;PMS_P1;PMS_P2;Temp;Humidity;BMP_temperature;BMP_pressure;BME280_temperature;BME280_humidity;BME280_pressure;Samples;Min_cycle;Max_cycle;Signal;HPM_P1;HPM_P2
2023/12/09 00:01:01;;;;;;;15.70;10.50;;;;;;;1.11;100.00;97593.42;110432;1241;71433;-68
2023/12/09 00:03:38;;;;;;;17.60;11.60;;;;;;;1.09;100.00;97596.91;110387;1241;69863;-68
2023/12/09 00:06:09;;;;;;;14.10;10.30;;;;;;;1.09;100.00;97595.54;110480;1245;69163;-69
2023/12/09 00:08:38;;;;;;;14.10;10.00;;;;;;;1.28;100.00;97595.94;110449;1241;60159;-68
2023/12/09 00:11:08;;;;;;;14.10;9.60;;;;;;;1.35;100.00;97600.69;110437;1241;59672;-68
2023/12/09 00:13:39;;;;;;;12.40;8.70;;;;;;;1.38;100.00;97606.08;110502;1238;70467;-68
2023/12/09 00:16:10;;;;;;;13.30;10.40;;;;;;;1.42;100.00;97604.40;110559;1247;69249;-68
2023/12/09 00:18:40;;;;;;;15.30;9.80;;;;;;;1.44;100.00;97605.71;110521;1241;68423;-68
2023/12/09 00:21:11;;;;;;;14.30;9.50;;;;;;;1.45;100.00;97607.92;110265;1245;59667;-68
2023/12/09 00:23:41;;;;;;;12.70;9.70;;;;;;;1.47;100.00;97608.01;110603;1240;59606;-68
2023/12/09 00:26:16;;;;;;;12.30;9.20;;;;;;;1.48;100.00;97608.50;110506;1241;70590;-68
2023/12/09 00:28:47;;;;;;;12.40;8.10;;;;;;;1.50;100.00;97608.79;110297;1238;68502;-68
2023/12/09 00:31:17;;;;;;;12.30;8.00;;;;;;;1.51;100.00;97609.58;110295;1238;68626;-68
2023/12/09 00:33:48;;;;;;;11.00;7.90;;;;;;;1.51;100.00;97613.19;110452;1238;59737;-69
2023/12/09 00:36:18;;;;;;;;;;;;;;;1.48;100.00;97612.80;110433;1238;59701;-70
2023/12/09 00:38:48;;;;;;;15.40;9.90;;;;;;;1.45;100.00;97617.02;110444;1240;71596;-69
2023/12/09 00:41:19;;;;;;;;;;;;;;;1.42;100.00;97620.58;110452;1238;68580;-67
2023/12/09 00:43:49;;;;;;;12.30;8.30;;;;;;;1.41;100.00;97624.20;110517;1241;68591;-68
2023/12/09 00:46:22;;;;;;;11.00;7.80;;;;;;;1.40;100.00;97630.05;110552;1241;59693;-68
2023/12/09 00:48:53;;;;;;;10.40;7.20;;;;;;;1.43;100.00;97631.37;110572;1238;59701;-68
2023/12/09 00:51:26;;;;;;;10.10;7.50;;;;;;;1.44;100.00;97628.75;110465;1241;71234;-67
2023/12/09 00:53:56;;;;;;;10.60;7.70;;;;;;;1.43;100.00;97625.86;110543;1242;68300;-67
2023/12/09 00:56:26;;;;;;;10.30;8.00;;;;;;;1.43;100.00;97622.09;110492;1238;68424;-68
2023/12/09 00:59:04;;;;;;;11.30;7.20;;;;;;;1.42;100.00;97622.96;110635;1238;59676;-67
2023/12/09 01:01:34;;;;;;;11.60;7.50;;;;;;;1.46;100.00;97622.65;110440;1238;59723;-68
2023/12/09 01:04:06;;;;;;;9.00;6.30;;;;;;;1.48;100.00;97619.66;110624;1241;70589;-68
2023/12/09 01:06:36;;;;;;;9.00;6.50;;;;;;;1.50;100.00;97618.39;110341;1242;69279;-68
2023/12/09 01:09:07;;;;;;;8.50;6.00;;;;;;;1.53;100.00;97612.96;110452;1242;69096;-68
2023/12/09 01:11:37;;;;;;;8.80;6.20;;;;;;;1.55;100.00;97614.13;110388;1242;59680;-68
2023/12/09 01:14:08;;;;;;;8.60;5.80;;;;;;;1.57;100.00;97614.76;110483;1241;59678;-68
2023/12/09 01:16:40;;;;;;;11.20;7.60;;;;;;;1.54;100.00;97610.71;110360;1248;71330;-69
2023/12/09 01:19:12;;;;;;;11.30;7.70;;;;;;;1.52;100.00;97609.73;110473;1238;69177;-68
2023/12/09 01:21:43;;;;;;;9.90;6.80;;;;;;;1.51;100.00;97608.22;110401;1246;69637;-68
2023/12/09 01:24:13;;;;;;;10.20;7.00;;;;;;;1.52;100.00;97606.81;110477;1240;59677;-68
2023/12/09 01:26:43;;;;;;;;;;;;;;;1.52;100.00;97607.16;110436;1238;59746;-68
2023/12/09 01:29:13;;;;;;;12.20;8.10;;;;;;;1.51;100.00;97607.04;110404;1241;71531;-68
2023/12/09 01:31:49;;;;;;;15.10;9.30;;;;;;;1.48;100.00;97596.83;110402;1238;68504;-68
2023/12/09 01:34:19;;;;;;;14.00;9.30;;;;;;;1.44;100.00;97599.70;110377;1238;69237;-67
2023/12/09 01:36:49;;;;;;;13.60;9.40;;;;;;;1.43;100.00;97599.91;110436;1243;59737;-68
2023/12/09 01:39:23;;;;;;;12.30;8.40;;;;;;;1.42;100.00;97597.00;110526;1241;59675;-69
2023/12/09 01:41:53;;;;;;;13.20;8.50;;;;;;;1.40;100.00;97596.60;110418;1241;70433;-67
2023/12/09 01:44:24;;;;;;;11.00;7.20;;;;;;;1.38;100.00;97598.54;110508;1241;68180;-67
2023/12/09 01:46:54;;;;;;;10.60;7.40;;;;;;;1.41;100.00;97596.73;110376;1238;69103;-67
2023/12/09 01:49:24;;;;;;;;;;;;;;;1.41;100.00;97593.28;110521;1241;59675;-67
2023/12/09 01:51:59;;;;;;;10.50;6.60;;;;;;;1.42;100.00;97592.73;110519;1240;59669;-68
2023/12/09 01:54:30;;;;;;;9.90;6.20;;;;;;;1.42;100.00;97592.91;109895;1238;716260;-67
2023/12/09 01:57:01;;;;;;;9.20;6.30;;;;;;;1.45;100.00;97595.05;110515;1241;69263;-67
2023/12/09 01:59:32;;;;;;;11.00;7.40;;;;;;;1.46;100.00;97594.83;110494;1242;70177;-67
2023/12/09 02:02:04;;;;;;;8.10;5.80;;;;;;;1.46;100.00;97595.17;110410;1241;59707;-67
2023/12/09 02:04:35;;;;;;;9.00;6.60;;;;;;;1.44;100.00;97595.23;110360;1240;59637;-68
2023/12/09 02:07:05;;;;;;;7.80;5.90;;;;;;;1.42;100.00;97597.04;110415;1238;71623;-68
2023/12/09 02:09:39;;;;;;;;;;;;;;;1.38;100.00;97597.14;110479;1242;69117;-67
2023/12/09 02:12:28;;;;;;;9.60;6.00;;;;;;;1.37;100.00;97597.21;110531;1238;69485;-68
2023/12/09 02:15:09;;;;;;;8.10;6.00;;;;;;;1.36;100.00;97597.73;110569;1239;59753;-67
2023/12/09 02:17:54;;;;;;;7.60;6.30;;;;;;;1.33;100.00;97590.64;110464;1241;59634;-68
2023/12/09 02:20:26;;;;;;;8.50;6.10;;;;;;;1.34;100.00;97589.05;110362;1241;71427;-67
2023/12/09 02:23:11;;;;;;;8.00;5.60;;;;;;;1.32;100.00;97589.13;110479;1241;69068;-68
2023/12/09 02:25:41;;;;;;;8.20;5.70;;;;;;;1.32;100.00;97588.42;110444;1241;69254;-68
2023/12/09 02:28:25;;;;;;;7.60;5.30;;;;;;;1.32;100.00;97584.14;110475;1240;59668;-68
2023/12/09 02:31:11;;;;;;;8.30;5.70;;;;;;;1.32;100.00;97582.23;110458;1241;59705;-68
2023/12/09 02:33:43;;;;;;;8.70;6.00;;;;;;;1.31;100.00;97580.75;110383;1240;70744;-68
2023/12/09 02:36:19;;;;;;;7.80;6.00;;;;;;;1.29;100.00;97579.08;110396;1241;68969;-68
2023/12/09 02:38:52;;;;;;;9.00;5.80;;;;;;;1.29;100.00;97579.42;110461;1241;69288;-67
2023/12/09 02:41:24;;;;;;;9.80;6.90;;;;;;;1.30;100.00;97579.39;110432;1241;59742;-68
2023/12/09 02:43:55;;;;;;;10.50;6.70;;;;;;;1.30;100.00;97578.02;110523;1241;59730;-68
2023/12/09 02:46:26;;;;;;;13.60;8.70;;;;;;;1.27;100.00;97576.40;110442;1238;71486;-68
2023/12/09 02:49:00;;;;;;;13.20;8.60;;;;;;;1.28;100.00;97578.08;110540;1240;69686;-68
2023/12/09 02:51:31;;;;;;;11.80;8.00;;;;;;;1.27;100.00;97585.83;110365;1240;69280;-68
2023/12/09 02:54:03;;;;;;;12.20;7.90;;;;;;;1.28;100.00;97589.58;110441;1238;59717;-68
2023/12/09 02:56:33;;;;;;;9.00;6.20;;;;;;;1.27;100.00;97593.40;110411;1238;60009;-68
2023/12/09 02:59:03;;;;;;;;;;;;;;;1.29;100.00;97588.36;110408;1240;71954;-68
2023/12/09 03:01:33;;;;;;;8.10;5.40;;;;;;;1.28;100.00;97587.54;110472;1242;69293;-69
2023/12/09 03:04:06;;;;;;;7.60;5.70;;;;;;;1.27;100.00;97587.02;110546;1240;68526;-68
2023/12/09 03:06:35;;;;;;;7.70;5.50;;;;;;;1.28;100.00;97586.98;110491;1241;59674;-69
2023/12/09 03:09:06;;;;;;;;;;;;;;;1.28;100.00;97588.21;110484;1240;59667;-68
2023/12/09 03:11:36;;;;;;;6.50;4.70;;;;;;;1.28;100.00;97588.70;110394;1238;72369;-68
2023/12/09 03:14:11;;;;;;;6.10;4.70;;;;;;;1.26;100.00;97589.30;110511;1241;69875;-68
2023/12/09 03:16:43;;;;;;;6.20;4.50;;;;;;;1.28;100.00;97591.48;110482;1241;69303;-68
2023/12/09 03:19:14;;;;;;;7.40;4.90;;;;;;;1.29;100.00;97593.16;110431;1240;59711;-69
2023/12/09 03:21:46;;;;;;;7.30;5.20;;;;;;;1.29;100.00;97594.02;110443;1239;59689;-69
2023/12/09 03:24:17;;;;;;;7.90;4.80;;;;;;;1.28;100.00;97593.01;110386;1241;70590;-68
2023/12/09 03:26:52;;;;;;;7.20;5.00;;;;;;;1.29;100.00;97591.95;110460;1238;68482;-68
2023/12/09 03:29:24;;;;;;;8.20;5.50;;;;;;;1.30;100.00;97591.25;110450;1240;69266;-69
2023/12/09 03:31:55;;;;;;;7.40;5.00;;;;;;;1.32;100.00;97594.10;110491;1242;59741;-68
2023/12/09 03:34:25;;;;;;;7.00;4.90;;;;;;;1.34;100.00;97594.22;110553;1238;59760;-68
2023/12/09 03:36:57;;;;;;;6.10;4.20;;;;;;;1.35;100.00;97596.56;110410;1244;70637;-69
2023/12/09 03:39:27;;;;;;;5.20;4.10;;;;;;;1.37;100.00;97595.83;110582;1242;68277;-66
2023/12/09 03:42:02;;;;;;;6.00;4.70;;;;;;;1.37;100.00;97596.34;110532;1241;68472;-68
2023/12/09 03:44:33;;;;;;;5.50;4.50;;;;;;;1.33;100.00;97599.92;110599;1242;60060;-67
2023/12/09 03:47:07;;;;;;;5.60;3.80;;;;;;;1.34;100.00;97598.84;110479;1241;59685;-67
2023/12/09 03:49:50;;;;;;;7.30;5.00;;;;;;;1.35;100.00;97600.04;110548;1238;71452;-68
2023/12/09 03:52:21;;;;;;;6.60;4.50;;;;;;;1.33;100.00;97602.30;110544;1238;68642;-67
2023/12/09 03:54:50;;;;;;;6.30;4.60;;;;;;;1.33;100.00;97604.73;110405;1240;69209;-67
2023/12/09 03:57:20;;;;;;;6.80;4.80;;;;;;;1.32;100.00;97604.41;110357;1241;59712;-67
2023/12/09 03:59:51;;;;;;;6.20;4.80;;;;;;;1.30;100.00;97603.28;110537;1241;59755;-69
2023/12/09 04:02:21;;;;;;;6.40;4.20;;;;;;;1.30;100.00;97603.77;110391;1243;69626;-68
2023/12/09 04:04:51;;;;;;;7.90;5.10;;;;;;;1.28;100.00;97598.86;110443;1241;67446;-67
2023/12/09 04:07:23;;;;;;;5.70;4.50;;;;;;;1.29;100.00;97597.63;110595;1240;68517;-67
2023/12/09 04:09:54;;;;;;;5.40;4.40;;;;;;;1.29;100.00;97597.11;110449;1242;59740;-67
2023/12/09 04:12:27;;;;;;;6.30;4.50;;;;;;;1.22;100.00;97597.17;110471;1238;59686;-67
2023/12/09 04:14:58;;;;;;;6.50;4.50;;;;;;;1.22;100.00;97597.52;110520;1238;70314;-66
2023/12/09 04:17:28;;;;;;;6.20;4.20;;;;;;;1.24;100.00;97592.80;110435;1241;69079;-68
2023/12/09 04:19:58;;;;;;;6.20;4.60;;;;;;;1.26;100.00;97587.79;110502;1242;68516;-67
2023/12/09 04:22:30;;;;;;;6.10;4.10;;;;;;;1.26;100.00;97591.02;110380;1241;59673;-67
2023/12/09 04:25:00;;;;;;;6.60;4.00;;;;;;;1.27;100.00;97592.70;110426;1238;59773;-67
2023/12/09 04:27:34;;;;;;;6.80;4.80;;;;;;;1.28;100.00;97592.51;110435;1238;70428;-67
2023/12/09 04:30:06;;;;;;;5.80;4.20;;;;;;;1.29;100.00;97595.05;110382;1238;69243;-67
2023/12/09 04:32:35;;;;;;;6.30;4.50;;;;;;;1.30;100.00;97598.11;110516;1241;69266;-67
2023/12/09 04:35:05;;;;;;;5.30;4.40;;;;;;;1.29;100.00;97596.61;110449;1241;59712;-67
2023/12/09 04:37:35;;;;;;;6.10;4.90;;;;;;;1.24;100.00;97594.01;110496;1241;59675;-67
2023/12/09 04:40:10;;;;;;;4.80;4.00;;;;;;;1.23;100.00;97595.76;110478;1238;71350;-67
2023/12/09 04:42:40;;;;;;;6.10;4.30;;;;;;;1.23;100.00;97594.74;110456;1240;69067;-68
2023/12/09 04:45:10;;;;;;;6.50;4.20;;;;;;;1.23;100.00;97593.52;110541;1238;69113;-68
2023/12/09 04:47:40;;;;;;;5.90;4.70;;;;;;;1.25;100.00;97595.88;110537;1242;59707;-68
2023/12/09 04:50:10;;;;;;;;;;;;;;;1.23;100.00;97599.88;110449;1240;59737;-68
2023/12/09 04:52:41;;;;;;;4.80;3.80;;;;;;;1.21;100.00;97597.73;110502;1241;70640;-68
2023/12/09 04:55:13;;;;;;;5.50;4.20;;;;;;;1.19;100.00;97602.59;110377;1238;69459;-68
2023/12/09 04:57:44;;;;;;;6.20;4.50;;;;;;;1.14;99.10;97607.73;110343;1241;68831;-68
2023/12/09 05:00:14;;;;;;;5.10;4.20;;;;;;;1.17;100.00;97609.35;110372;1238;59674;-68
2023/12/09 05:02:44;;;;;;;6.00;4.20;;;;;;;1.16;100.00;97611.44;110425;1241;59647;-68
2023/12/09 05:05:15;;;;;;;5.60;4.10;;;;;;;1.18;100.00;97613.27;110562;1241;71833;-68
2023/12/09 05:07:44;;;;;;;6.30;4.60;;;;;;;1.19;100.00;97619.06;110399;1240;69158;-67
2023/12/09 05:10:14;;;;;;;5.20;4.00;;;;;;;1.15;99.97;97622.30;110370;1242;69269;-68
2023/12/09 05:12:44;;;;;;;6.10;4.90;;;;;;;1.07;99.52;97623.08;110400;1238;59673;-67
2023/12/09 05:15:14;;;;;;;6.00;4.30;;;;;;;1.08;99.66;97626.80;110407;1241;59724;-69
2023/12/09 05:17:44;;;;;;;5.20;4.30;;;;;;;1.10;99.88;97627.78;110468;1240;71383;-68
2023/12/09 05:20:16;;;;;;;5.70;4.10;;;;;;;1.03;99.63;97626.60;110570;1240;70003;-67
2023/12/09 05:22:46;;;;;;;4.80;3.80;;;;;;;1.09;100.00;97630.38;110526;1241;68715;-67
2023/12/09 05:25:16;;;;;;;6.50;4.40;;;;;;;1.10;100.00;97633.25;110620;1239;59734;-67
2023/12/09 05:27:46;;;;;;;5.90;4.50;;;;;;;1.10;100.00;97632.21;110558;1242;59630;-67
2023/12/09 05:30:16;;;;;;;5.90;4.50;;;;;;;1.10;100.00;97634.99;110450;1241;70755;-67
2023/12/09 05:32:46;;;;;;;5.30;3.90;;;;;;;1.09;100.00;97636.57;110545;1241;69309;-67
2023/12/09 05:35:16;;;;;;;;;;;;;;;1.10;100.00;97642.55;110283;1242;68528;-67
2023/12/09 05:37:46;;;;;;;5.50;3.80;;;;;;;1.09;100.00;97642.39;110571;1238;59690;-67
2023/12/09 05:40:16;;;;;;;7.10;4.70;;;;;;;1.09;100.00;97642.22;110495;1239;59742;-67
2023/12/09 05:42:46;;;;;;;7.40;3.80;;;;;;;1.10;99.91;97642.36;110627;1239;71417;-69
2023/12/09 05:45:16;;;;;;;5.40;3.60;;;;;;;1.11;99.94;97642.01;110455;1241;69210;-66
2023/12/09 05:47:48;;;;;;;6.20;4.90;;;;;;;1.11;99.95;97643.52;110415;1240;68978;-67
2023/12/09 05:50:19;;;;;;;5.80;4.40;;;;;;;1.13;100.00;97642.25;110633;1238;59739;-70
2023/12/09 05:52:50;;;;;;;6.90;4.70;;;;;;;1.13;100.00;97644.31;110519;1239;59628;-67
2023/12/09 05:55:19;;;;;;;5.40;4.40;;;;;;;1.10;99.55;97644.60;110491;1238;71379;-66
2023/12/09 05:57:49;;;;;;;6.50;4.90;;;;;;;1.09;100.00;97647.54;110456;1239;69276;-69
2023/12/09 06:00:18;;;;;;;6.60;4.40;;;;;;;1.08;100.00;97647.42;110457;1238;68498;-67
2023/12/09 06:02:47;;;;;;;6.20;5.10;;;;;;;1.08;100.00;97648.63;110424;1241;59740;-68
2023/12/09 06:05:17;;;;;;;6.90;5.30;;;;;;;1.09;100.00;97649.44;110515;1240;59673;-67
2023/12/09 06:07:46;;;;;;;6.10;4.80;;;;;;;1.10;100.00;97650.08;110447;1240;71300;-67
2023/12/09 06:10:16;;;;;;;5.60;4.30;;;;;;;1.11;100.00;97648.00;110643;1238;68535;-68
2023/12/09 06:12:45;;;;;;;7.20;4.00;;;;;;;1.12;100.00;97651.58;110534;1241;67669;-68
2023/12/09 06:15:15;;;;;;;5.20;4.00;;;;;;;1.14;100.00;97649.45;110570;1238;59693;-68
2023/12/09 06:17:45;;;;;;;;;;;;;;;1.15;100.00;97647.85;110642;1239;59696;-67
2023/12/09 06:20:14;;;;;;;5.30;3.80;;;;;;;1.16;100.00;97649.55;110590;1238;71373;-68
2023/12/09 06:22:43;;;;;;;6.30;4.60;;;;;;;1.19;100.00;97652.38;110422;1240;69219;-67
2023/12/09 06:25:12;;;;;;;7.30;4.30;;;;;;;1.23;100.00;97650.70;110522;1241;68428;-68
2023/12/09 06:27:42;;;;;;;6.60;4.80;;;;;;;1.25;100.00;97653.41;110449;1238;59680;-68
2023/12/09 06:30:12;;;;;;;5.00;3.80;;;;;;;1.27;100.00;97654.17;110637;1240;59613;-68
2023/12/09 06:32:43;;;;;;;4.50;3.70;;;;;;;1.27;100.00;97656.05;110581;1245;70269;-68
2023/12/09 06:35:13;;;;;;;5.90;5.00;;;;;;;1.28;100.00;97661.20;110448;1238;69059;-68
2023/12/09 06:37:42;;;;;;;10.70;8.20;;;;;;;1.28;100.00;97659.13;110428;1243;68304;-68
2023/12/09 06:40:13;;;;;;;7.50;6.40;;;;;;;1.19;100.00;97663.20;110288;1238;59754;-68
2023/12/09 06:42:43;;;;;;;7.90;6.10;;;;;;;1.21;100.00;97668.80;110554;1240;59598;-68
2023/12/09 06:45:13;;;;;;;6.80;5.60;;;;;;;1.23;100.00;97667.02;110569;1244;71386;-68
2023/12/09 06:47:42;;;;;;;8.00;5.10;;;;;;;1.24;100.00;97666.96;110381;1239;70275;-68
2023/12/09 06:50:12;;;;;;;6.40;4.80;;;;;;;1.26;100.00;97668.31;110600;1238;67562;-68
2023/12/09 06:52:43;;;;;;;7.50;5.30;;;;;;;1.27;100.00;97665.16;110442;1239;59740;-70
2023/12/09 06:55:13;;;;;;;6.40;5.10;;;;;;;1.27;99.90;97663.27;110451;1241;59649;-70
2023/12/09 06:57:42;;;;;;;6.70;5.70;;;;;;;1.32;100.00;97663.46;110515;1238;72008;-69
2023/12/09 07:00:12;;;;;;;7.10;4.70;;;;;;;1.35;100.00;97666.83;110498;1239;69800;-69
2023/12/09 07:02:42;;;;;;;7.80;5.80;;;;;;;1.35;99.95;97665.46;110479;1239;69228;-69
2023/12/09 07:05:26;;;;;;;5.60;4.90;;;;;;;1.35;100.00;97667.15;110408;1241;59689;-69
2023/12/09 07:07:56;;;;;;;5.30;4.30;;;;;;;1.32;99.53;97663.81;110540;1237;59734;-69
2023/12/09 07:10:25;;;;;;;5.20;4.60;;;;;;;1.32;98.66;97662.09;110529;1239;71224;-69
2023/12/09 07:12:55;;;;;;;;;;;;;;;1.36;98.18;97663.20;110520;1239;68092;-69
2023/12/09 07:15:24;;;;;;;7.80;5.20;;;;;;;1.38;98.67;97666.20;110405;1239;69798;-69
2023/12/09 07:17:54;;;;;;;7.20;5.00;;;;;;;1.40;99.91;97667.70;110388;1238;59695;-69
2023/12/09 07:20:23;;;;;;;7.90;5.90;;;;;;;1.41;100.00;97668.48;110442;1242;59687;-69
2023/12/09 07:22:52;;;;;;;7.40;5.50;;;;;;;1.43;100.00;97666.89;110454;1239;70879;-69
2023/12/09 07:25:23;;;;;;;8.60;5.80;;;;;;;1.45;100.00;97667.69;110564;1238;68724;-68
2023/12/09 07:27:53;;;;;;;7.40;5.40;;;;;;;1.45;100.00;97662.90;110373;1241;69329;-69
2023/12/09 07:30:23;;;;;;;7.70;6.10;;;;;;;1.45;99.68;97663.06;110446;1238;60075;-69
2023/12/09 07:32:52;;;;;;;8.20;6.00;;;;;;;1.45;98.31;97662.36;110373;1240;59753;-69
2023/12/09 07:35:21;;;;;;;7.70;5.80;;;;;;;1.48;97.70;97666.20;110526;1238;72094;-69
2023/12/09 07:37:51;;;;;;;7.50;5.80;;;;;;;1.51;97.35;97663.89;110509;1241;69246;-69
2023/12/09 07:40:21;;;;;;;7.10;5.30;;;;;;;1.51;97.30;97664.23;110442;1241;69885;-69
2023/12/09 07:42:50;;;;;;;6.10;4.80;;;;;;;1.59;98.02;97663.80;110366;1240;59711;-69
2023/12/09 07:45:20;;;;;;;6.80;5.40;;;;;;;1.64;98.38;97661.06;110438;1238;59734;-69
2023/12/09 07:47:49;;;;;;;7.20;5.10;;;;;;;1.66;97.32;97661.33;110434;1238;71491;-69
2023/12/09 07:50:19;;;;;;;6.20;4.60;;;;;;;1.76;99.30;97663.42;110430;1238;68665;-69
2023/12/09 07:52:48;;;;;;;5.70;4.50;;;;;;;1.81;98.71;97668.57;110414;1241;69884;-67
2023/12/09 07:55:17;;;;;;;6.50;4.40;;;;;;;1.86;97.28;97667.19;110438;1242;59725;-65
2023/12/09 07:57:47;;;;;;;7.00;5.10;;;;;;;1.91;94.66;97667.56;110463;1240;59753;-62
2023/12/09 08:00:17;;;;;;;6.50;4.90;;;;;;;1.98;95.11;97671.41;110619;1238;71358;-70
2023/12/09 08:02:46;;;;;;;9.60;6.30;;;;;;;2.01;93.08;97672.02;110559;1240;69813;-68
2023/12/09 08:05:16;;;;;;;26.70;18.00;;;;;;;2.04;95.47;97674.30;110389;1240;69276;-67
2023/12/09 08:07:46;;;;;;;14.10;11.10;;;;;;;2.05;96.38;97673.77;110487;1241;59687;-67
2023/12/09 08:10:15;;;;;;;12.40;10.80;;;;;;;2.03;94.95;97674.35;110396;1238;59701;-62
2023/12/09 08:12:44;;;;;;;7.70;6.20;;;;;;;2.02;94.45;97676.60;110477;1241;71977;-62
2023/12/09 08:15:14;;;;;;;8.40;5.50;;;;;;;2.04;96.59;97676.20;110438;1239;69228;-66
2023/12/09 08:17:43;;;;;;;6.60;4.90;;;;;;;1.98;95.92;97679.15;110510;1240;68576;-65
2023/12/09 08:20:12;;;;;;;6.30;5.10;;;;;;;2.00;95.84;97675.80;110494;1239;59777;-65
2023/12/09 08:22:41;;;;;;;6.40;4.80;;;;;;;1.97;94.14;97671.98;110476;1239;59725;-65
2023/12/09 08:25:10;;;;;;;7.20;5.30;;;;;;;2.00;94.31;97671.52;110507;1238;71781;-64
2023/12/09 08:27:39;;;;;;;7.50;5.40;;;;;;;2.01;94.06;97672.89;110529;1240;69130;-65
2023/12/09 08:30:10;;;;;;;6.60;5.00;;;;;;;1.95;92.31;97671.69;110541;1244;68523;-64
2023/12/09 08:32:41;;;;;;;7.10;5.10;;;;;;;2.03;91.87;97670.41;110530;1238;59734;-63
2023/12/09 08:35:10;;;;;;;8.20;6.10;;;;;;;2.14;94.38;97672.24;110591;1239;59676;-63
2023/12/09 08:37:40;;;;;;;7.30;5.30;;;;;;;2.23;95.32;97671.09;110432;1238;71002;-65
2023/12/09 08:40:11;;;;;;;7.70;5.20;;;;;;;2.29;95.01;97668.10;110436;1239;68311;-65
2023/12/09 08:42:43;;;;;;;7.70;5.20;;;;;;;2.37;94.58;97666.80;110423;1238;69221;-65
2023/12/09 08:45:15;;;;;;;7.60;5.90;;;;;;;2.41;91.98;97667.83;110578;1239;60060;-65
2023/12/09 08:47:44;;;;;;;7.40;5.70;;;;;;;2.43;92.13;97671.73;110484;1237;59698;-65
2023/12/09 08:50:15;;;;;;;7.80;5.50;;;;;;;2.34;90.74;97671.88;110512;1238;72279;-66
2023/12/09 08:52:53;;;;;;;8.40;5.70;;;;;;;2.44;92.51;97671.01;110578;1239;70139;-63
2023/12/09 08:55:22;;;;;;;7.80;6.00;;;;;;;2.48;91.21;97672.04;110589;1238;69036;-62
2023/12/09 08:57:52;;;;;;;6.70;5.80;;;;;;;2.45;90.55;97669.40;110398;1241;59706;-64
2023/12/09 09:00:25;;;;;;;6.80;5.60;;;;;;;2.45;90.07;97667.89;110494;1239;60133;-64
2023/12/09 09:02:58;;;;;;;6.80;5.20;;;;;;;2.41;89.75;97664.57;110464;1241;71312;-64
2023/12/09 09:05:28;;;;;;;7.90;5.50;;;;;;;2.24;88.63;97658.45;110604;1239;69090;-64
2023/12/09 09:07:57;;;;;;;7.30;5.40;;;;;;;2.30;88.93;97659.46;110665;1239;68545;-64
2023/12/09 09:10:26;;;;;;;6.70;5.40;;;;;;;2.39;90.61;97662.07;110479;1241;59737;-63
2023/12/09 09:12:56;;;;;;;8.60;6.60;;;;;;;2.46;92.32;97662.33;110664;1239;59666;-65
2023/12/09 09:15:25;;;;;;;8.00;5.70;;;;;;;2.32;90.22;97660.09;110472;1237;72055;-65
2023/12/09 09:17:54;;;;;;;6.60;5.20;;;;;;;2.32;90.53;97661.66;110567;1239;70152;-65
2023/12/09 09:20:24;;;;;;;7.70;6.10;;;;;;;2.35;91.05;97654.83;110554;1241;69495;-66
2023/12/09 09:22:53;;;;;;;8.40;6.10;;;;;;;2.45;92.30;97650.52;110389;1238;59741;-64
2023/12/09 09:25:22;;;;;;;9.40;6.70;;;;;;;2.44;90.35;97647.60;110495;1243;59877;-66
2023/12/09 09:27:52;;;;;;;9.60;6.70;;;;;;;2.43;91.29;97647.15;110411;1241;71390;-65
2023/12/09 09:30:23;;;;;;;8.00;6.50;;;;;;;2.34;90.54;97642.99;110389;1240;69222;-63
2023/12/09 09:32:53;;;;;;;7.80;6.30;;;;;;;2.37;91.38;97642.55;110656;1239;69694;-64
2023/12/09 09:35:24;;;;;;;8.20;6.70;;;;;;;2.29;89.66;97634.73;110495;1240;59678;-62
2023/12/09 09:37:53;;;;;;;8.00;6.20;;;;;;;2.28;90.51;97630.11;110652;1239;59710;-63
2023/12/09 09:40:22;;;;;;;7.60;5.80;;;;;;;2.36;90.36;97629.16;110526;1241;71999;-62
2023/12/09 09:43:06;;;;;;;7.70;5.60;;;;;;;2.48;90.48;97625.79;110612;1238;68843;-63
2023/12/09 09:45:36;;;;;;;6.70;4.70;;;;;;;2.43;88.09;97619.59;110629;1237;69903;-64
2023/12/09 09:48:12;;;;;;;8.40;6.10;;;;;;;2.39;88.40;97619.56;110422;1239;59724;-63
2023/12/09 09:50:45;;;;;;;7.10;5.20;;;;;;;2.43;89.46;97622.88;110526;1239;59640;-63
2023/12/09 09:53:25;;;;;;;8.10;6.00;;;;;;;2.46;88.05;97622.61;110413;1240;71356;-62
2023/12/09 09:55:56;;;;;;;7.80;5.90;;;;;;;2.50;88.81;97620.04;110471;1237;69807;-61
2023/12/09 09:58:25;;;;;;;7.50;6.00;;;;;;;2.56;89.63;97614.66;110305;1238;67989;-62
2023/12/09 10:00:56;;;;;;;8.70;6.50;;;;;;;2.55;90.47;97612.63;110558;1239;59649;-62
2023/12/09 10:03:26;;;;;;;8.10;6.90;;;;;;;2.51;90.26;97608.46;110687;1239;59724;-62
2023/12/09 10:05:56;;;;;;;7.10;5.60;;;;;;;2.46;89.94;97608.48;110551;1238;71427;-62
2023/12/09 10:08:25;;;;;;;;;;;;;;;2.42;89.03;97605.55;110661;1237;68681;-62
2023/12/09 10:10:55;;;;;;;7.50;5.30;;;;;;;2.39;89.49;97605.33;110565;1239;69173;-62
2023/12/09 10:13:24;;;;;;;8.10;6.70;;;;;;;2.41;89.27;97603.50;110487;1244;59732;-62
2023/12/09 10:15:53;;;;;;;9.60;7.50;;;;;;;2.41;89.90;97602.65;110614;1239;59687;-62
2023/12/09 10:18:24;;;;;;;8.80;7.00;;;;;;;2.43;90.59;97601.21;110508;1239;72048;-62
2023/12/09 10:20:53;;;;;;;9.20;6.70;;;;;;;2.38;90.68;97599.52;110502;1239;69114;-62
2023/12/09 10:23:22;;;;;;;10.40;7.00;;;;;;;2.30;89.39;97594.10;110471;1238;69909;-62
2023/12/09 10:25:51;;;;;;;10.30;7.00;;;;;;;2.24;89.97;97591.73;110540;1239;59667;-63
2023/12/09 10:28:20;;;;;;;11.40;8.20;;;;;;;2.20;89.73;97593.10;110589;1239;59685;-62
2023/12/09 10:30:50;;;;;;;8.40;6.80;;;;;;;2.11;89.70;97588.95;110547;1237;71960;-62
2023/12/09 10:33:21;;;;;;;11.80;7.80;;;;;;;2.11;91.79;97593.61;110615;1238;69052;-62
2023/12/09 10:35:51;;;;;;;11.40;7.80;;;;;;;2.17;91.21;97588.25;110557;1239;69847;-62
2023/12/09 10:38:20;;;;;;;10.00;7.70;;;;;;;2.23;91.49;97588.02;110562;1238;59677;-62
2023/12/09 10:40:50;;;;;;;8.50;6.80;;;;;;;2.28;91.10;97586.97;110587;1241;59679;-61
2023/12/09 10:43:19;;;;;;;11.10;7.10;;;;;;;2.27;89.93;97587.02;110555;1237;71950;-61
2023/12/09 10:45:47;;;;;;;8.30;7.20;;;;;;;2.25;91.18;97577.96;110574;1238;69856;-62
2023/12/09 10:48:17;;;;;;;8.10;6.30;;;;;;;2.27;92.19;97574.10;110679;1238;68328;-62
2023/12/09 10:50:46;;;;;;;8.30;6.40;;;;;;;2.35;90.77;97575.04;110543;1239;59684;-61
2023/12/09 10:53:15;;;;;;;7.50;6.00;;;;;;;2.41;88.50;97577.70;110387;1241;59713;-62
2023/12/09 10:55:45;;;;;;;7.80;6.50;;;;;;;2.48;89.28;97573.34;110437;1238;70422;-61
2023/12/09 10:58:14;;;;;;;;;;;;;;;2.57;90.95;97571.08;110525;1237;69196;-61
2023/12/09 11:00:45;;;;;;;8.00;5.90;;;;;;;2.61;90.72;97567.68;110666;1238;68558;-62
2023/12/09 11:03:15;;;;;;;6.80;5.50;;;;;;;2.66;90.30;97563.52;110632;1244;59734;-62
2023/12/09 11:05:54;;;;;;;7.60;6.20;;;;;;;2.66;89.01;97562.33;110675;1238;59741;-62
2023/12/09 11:08:29;;;;;;;8.10;6.40;;;;;;;2.64;88.93;97559.99;110611;1239;71282;-62
2023/12/09 11:11:02;;;;;;;8.30;6.10;;;;;;;2.56;88.75;97551.35;110585;1238;68628;-62
2023/12/09 11:13:34;;;;;;;8.00;6.40;;;;;;;2.51;88.48;97549.79;110468;1242;69898;-63
2023/12/09 11:16:17;;;;;;;10.20;7.10;;;;;;;2.49;89.14;97544.55;110630;1241;59673;-62
2023/12/09 11:18:57;;;;;;;9.00;6.90;;;;;;;2.51;89.88;97547.02;110563;1239;59684;-62
2023/12/09 11:21:31;;;;;;;8.50;6.60;;;;;;;2.52;90.16;97544.45;110510;1238;71363;-63
2023/12/09 11:24:00;;;;;;;9.60;7.30;;;;;;;2.51;90.04;97545.66;110563;1239;69685;-62
2023/12/09 11:26:33;;;;;;;10.40;7.00;;;;;;;2.48;89.88;97542.54;110508;1238;69603;-62
2023/12/09 11:29:07;;;;;;;9.20;6.20;;;;;;;2.46;89.92;97537.45;110442;1238;59682;-62
2023/12/09 11:31:48;;;;;;;10.70;7.60;;;;;;;2.44;89.54;97532.88;110535;1239;59641;-62
2023/12/09 11:34:23;;;;;;;13.00;8.60;;;;;;;2.40;89.82;97535.63;110619;1237;71678;-62
2023/12/09 11:36:55;;;;;;;11.90;8.20;;;;;;;2.27;89.93;97533.35;110464;1239;68745;-62
2023/12/09 11:39:25;;;;;;;11.10;8.50;;;;;;;2.14;90.43;97532.98;110463;1239;68551;-62
2023/12/09 11:41:54;;;;;;;11.60;8.20;;;;;;;2.10;90.97;97532.29;110503;1238;60025;-62
2023/12/09 11:44:24;;;;;;;11.40;8.60;;;;;;;2.07;91.53;97530.85;110437;1239;59760;-63
2023/12/09 11:46:53;;;;;;;13.10;9.20;;;;;;;2.04;92.20;97534.19;110469;1239;71369;-62